createdAt,value
2022-12-15T00:02:18.776Z,135.63
2022-12-15T00:05:04.728Z,133.60
2022-12-15T00:07:50.012Z,134.13
2022-12-15T00:10:35.776Z,124.03
2022-12-15T00:13:21.007Z,117.43
2022-12-15T00:16:06.953Z,134.83
2022-12-15T00:18:52.858Z,143.53
2022-12-15T00:21:38.109Z,146.83
2022-12-15T00:24:24.325Z,132.50
2022-12-15T00:27:09.592Z,138.23
2022-12-15T00:29:54.892Z,137.80
2022-12-15T00:32:41.817Z,126.47
2022-12-15T00:35:27.823Z,126.57
2022-12-15T00:38:13.259Z,130.23
2022-12-15T00:40:40.636Z,127.93
2022-12-15T00:43:12.073Z,128.67
2022-12-15T00:45:58.178Z,124.83
2022-12-15T00:48:25.103Z,131.53
2022-12-15T00:50:54.733Z,121.70
2022-12-15T00:53:43.068Z,134.47
2022-12-15T00:56:28.969Z,135.60
2022-12-15T00:59:14.949Z,138.93
2022-12-15T01:02:00.906Z,135.10
2022-12-15T01:04:47.422Z,133.67
2022-12-15T01:07:33.643Z,136.77
2022-12-15T01:10:19.937Z,134.80
2022-12-15T01:13:05.985Z,128.77
2022-12-15T01:15:51.194Z,143.27
2022-12-15T01:18:36.702Z,137.13
2022-12-15T01:21:08.271Z,138.13
2022-12-15T01:23:36.315Z,133.67
2022-12-15T01:26:05.266Z,140.10
2022-12-15T01:28:32.332Z,139.30
2022-12-15T01:30:59.352Z,143.47
2022-12-15T01:33:26.408Z,142.47
2022-12-15T01:36:02.024Z,144.60
2022-12-15T01:38:29.621Z,131.90
2022-12-15T01:41:02.401Z,141.80
2022-12-15T01:43:39.214Z,144.27
2022-12-15T01:46:07.522Z,146.43
2022-12-15T01:48:45.941Z,152.90
2022-12-15T01:51:34.418Z,140.67
2022-12-15T01:54:13.819Z,131.23
2022-12-15T01:56:46.547Z,125.33
2022-12-15T01:59:24.571Z,128.30
2022-12-15T02:01:51.902Z,122.50
2022-12-15T02:04:22.251Z,131.67
2022-12-15T02:06:49.509Z,119.37
2022-12-15T02:09:18.042Z,119.63
2022-12-15T02:11:57.443Z,122.73
2022-12-15T02:14:42.000Z,119.23
2022-12-15T02:17:34.187Z,118.27
2022-12-15T02:20:19.435Z,128.60
2022-12-15T02:23:08.013Z,117.40
2022-12-15T02:25:59.906Z,119.97
2022-12-15T02:28:53.023Z,116.67
2022-12-15T02:31:50.806Z,121.97
2022-12-15T02:34:45.093Z,140.60
2022-12-15T02:37:27.584Z,121.67
2022-12-15T02:39:54.511Z,169.23
2022-12-15T02:42:23.009Z,142.20
2022-12-15T02:45:04.298Z,148.07
2022-12-15T02:48:07.527Z,150.37
2022-12-15T02:50:43.298Z,196.60
2022-12-15T02:53:40.306Z,155.83
2022-12-15T02:56:14.092Z,140.70
2022-12-15T02:59:11.261Z,149.97
2022-12-15T03:01:51.833Z,143.70
2022-12-15T03:04:20.050Z,144.33
2022-12-15T03:07:00.791Z,204.10
2022-12-15T03:09:28.345Z,138.40
2022-12-15T03:11:55.366Z,147.00
2022-12-15T03:14:22.631Z,141.67
2022-12-15T03:16:49.713Z,180.47
2022-12-15T03:19:16.689Z,159.77
2022-12-15T03:21:43.701Z,167.37
2022-12-15T03:24:10.813Z,160.47
2022-12-15T03:26:37.760Z,150.23
2022-12-15T03:29:04.758Z,147.97
2022-12-15T03:31:31.797Z,139.60
2022-12-15T03:33:58.813Z,137.83
2022-12-15T03:36:25.829Z,128.97
2022-12-15T03:38:52.913Z,161.87
2022-12-15T03:41:20.068Z,147.40
2022-12-15T03:43:49.674Z,135.90
2022-12-15T03:46:17.069Z,158.47
2022-12-15T03:48:44.187Z,143.03
2022-12-15T03:51:11.311Z,125.07
2022-12-15T03:53:38.344Z,132.40
2022-12-15T03:56:05.709Z,146.77
2022-12-15T03:58:32.698Z,138.10
2022-12-15T04:00:59.830Z,148.70
2022-12-15T04:03:26.876Z,143.33
2022-12-15T04:05:53.933Z,127.37
2022-12-15T04:08:26.763Z,126.60
2022-12-15T04:10:53.908Z,130.43
2022-12-15T04:13:20.884Z,133.70
2022-12-15T04:15:47.829Z,164.63
2022-12-15T04:18:14.799Z,144.17
2022-12-15T04:20:41.838Z,135.77
2022-12-15T04:23:08.891Z,126.17
2022-12-15T04:25:55.579Z,124.03
2022-12-15T04:28:41.441Z,115.73
2022-12-15T04:31:34.085Z,106.97
2022-12-15T04:34:23.627Z,100.07
2022-12-15T04:37:12.650Z,67.00
2022-12-15T04:40:02.396Z,80.67
2022-12-15T04:42:50.721Z,73.60
2022-12-15T04:45:39.998Z,89.67
2022-12-15T04:48:25.938Z,93.60
2022-12-15T04:51:11.229Z,88.77
2022-12-15T04:53:57.038Z,94.13
2022-12-15T04:56:42.769Z,105.00
2022-12-15T04:59:28.179Z,80.27
2022-12-15T05:02:13.787Z,85.43
2022-12-15T05:04:59.201Z,80.90
2022-12-15T05:07:45.940Z,91.57
2022-12-15T05:10:31.908Z,96.77
2022-12-15T05:13:27.301Z,89.90
2022-12-15T05:16:12.790Z,99.57
2022-12-15T05:18:58.134Z,90.93
2022-12-15T05:21:43.516Z,95.47
2022-12-15T05:24:28.768Z,105.07
2022-12-15T05:27:14.045Z,112.97
2022-12-15T05:29:59.305Z,107.23
2022-12-15T05:32:26.299Z,105.33
2022-12-15T05:34:53.260Z,128.40
2022-12-15T05:37:20.201Z,141.23
2022-12-15T05:39:47.143Z,82.90
2022-12-15T05:42:14.090Z,76.63
2022-12-15T05:44:41.088Z,82.27
2022-12-15T05:47:09.264Z,81.40
2022-12-15T05:49:36.217Z,92.83
2022-12-15T05:52:03.621Z,107.10
2022-12-15T05:54:30.597Z,88.77
2022-12-15T05:56:57.620Z,86.57
2022-12-15T05:59:24.646Z,95.30
2022-12-15T06:01:51.690Z,101.33
2022-12-15T06:04:19.606Z,82.57
2022-12-15T06:06:46.679Z,83.77
2022-12-15T06:09:13.662Z,75.97
2022-12-15T06:11:40.813Z,118.10
2022-12-15T06:14:07.992Z,87.77
2022-12-15T06:16:39.589Z,74.40
2022-12-15T06:19:09.716Z,96.13
2022-12-15T06:21:37.235Z,78.87
2022-12-15T06:24:05.958Z,95.63
2022-12-15T06:26:38.529Z,91.73
2022-12-15T06:29:08.813Z,80.30
2022-12-15T06:31:37.616Z,83.73
2022-12-15T06:34:08.241Z,95.13
2022-12-15T06:36:35.340Z,93.80
2022-12-15T06:39:05.884Z,90.23
2022-12-15T06:41:33.557Z,91.87
2022-12-15T06:44:01.432Z,94.47
2022-12-15T06:46:30.338Z,89.37
2022-12-15T06:48:58.604Z,88.60
2022-12-15T06:51:28.157Z,87.20
2022-12-15T06:53:56.169Z,89.43
2022-12-15T06:56:33.493Z,92.67
2022-12-15T06:59:03.903Z,100.60
2022-12-15T07:01:32.039Z,93.20
2022-12-15T07:04:01.450Z,92.07
2022-12-15T07:06:36.591Z,90.10
2022-12-15T07:09:07.472Z,91.93
2022-12-15T07:11:35.252Z,88.00
2022-12-15T07:14:02.356Z,85.67
2022-12-15T07:16:30.113Z,89.40
2022-12-15T07:18:57.159Z,99.37
2022-12-15T07:21:24.427Z,103.87
2022-12-15T07:23:56.325Z,102.63
2022-12-15T07:26:24.945Z,116.27
2022-12-15T07:28:53.811Z,106.67
2022-12-15T07:31:22.151Z,106.83
2022-12-15T07:33:49.557Z,117.87
2022-12-15T07:36:16.620Z,103.50
2022-12-15T07:38:45.638Z,106.73
2022-12-15T07:41:18.135Z,110.50
2022-12-15T07:43:45.924Z,124.87
2022-12-15T07:46:12.973Z,105.97
2022-12-15T07:48:39.966Z,112.80
2022-12-15T07:51:12.460Z,106.17
2022-12-15T07:53:42.523Z,100.93
2022-12-15T07:56:10.546Z,102.57
2022-12-15T07:58:39.051Z,118.00
2022-12-15T08:01:10.160Z,110.07
2022-12-15T08:03:38.835Z,109.27
2022-12-15T08:06:12.594Z,110.63
2022-12-15T08:08:40.772Z,119.80
2022-12-15T08:11:10.308Z,126.63
2022-12-15T08:16:26.285Z,124.87
2022-12-15T08:18:53.837Z,115.70
2022-12-15T08:21:20.860Z,123.27
2022-12-15T08:23:48.130Z,123.03
2022-12-15T08:26:17.585Z,120.73
2022-12-15T08:28:46.042Z,110.97
2022-12-15T08:31:17.110Z,111.50
2022-12-15T08:33:45.820Z,118.27
2022-12-15T08:36:15.528Z,113.03
2022-12-15T08:38:44.204Z,109.87
2022-12-15T08:41:16.899Z,115.90
2022-12-15T08:43:48.616Z,125.97
2022-12-15T08:46:22.895Z,119.07
2022-12-15T08:48:50.553Z,109.17
2022-12-15T08:51:18.089Z,123.93
2022-12-15T08:53:45.962Z,118.40
2022-12-15T08:56:17.459Z,111.10
2022-12-15T08:58:46.199Z,127.53
2022-12-15T09:01:22.944Z,118.90
2022-12-15T09:03:52.366Z,125.13
2022-12-15T09:06:31.009Z,115.73
2022-12-15T09:09:01.409Z,134.30
2022-12-15T09:11:30.135Z,154.20
2022-12-15T09:13:57.552Z,151.53
2022-12-15T09:16:25.141Z,128.77
2022-12-15T09:18:55.043Z,136.47
2022-12-15T09:21:26.167Z,132.50
2022-12-15T09:23:57.779Z,120.83
2022-12-15T09:26:24.723Z,129.47
2022-12-15T09:28:54.737Z,113.37
2022-12-15T09:31:29.089Z,129.73
2022-12-15T09:33:59.602Z,101.53
2022-12-15T09:36:28.030Z,160.17
2022-12-15T09:38:55.290Z,103.53
2022-12-15T09:41:29.938Z,112.87
2022-12-15T09:44:10.915Z,107.90
2022-12-15T09:46:50.251Z,118.83
2022-12-15T09:49:35.566Z,176.00
2022-12-15T09:52:18.262Z,161.23
2022-12-15T09:54:46.431Z,171.80
2022-12-15T09:57:38.047Z,141.97
2022-12-15T10:00:21.242Z,140.67
2022-12-15T10:03:09.817Z,133.90
2022-12-15T10:06:17.103Z,132.60
2022-12-15T10:08:55.382Z,121.67
2022-12-15T10:11:44.115Z,153.70
2022-12-15T10:14:35.582Z,141.53
2022-12-15T10:17:34.464Z,140.43
2022-12-15T10:20:20.647Z,135.80
2022-12-15T10:22:50.212Z,209.27
2022-12-15T10:25:30.379Z,152.93
2022-12-15T10:28:16.090Z,186.00
2022-12-15T10:31:04.977Z,283.33
2022-12-15T10:33:39.763Z,175.70
2022-12-15T10:36:15.930Z,133.90
2022-12-15T10:38:50.385Z,124.10
2022-12-15T10:41:24.349Z,217.60
2022-12-15T10:43:53.857Z,141.43
2022-12-15T10:46:28.000Z,178.37
2022-12-15T10:49:17.036Z,140.83
2022-12-15T10:52:00.661Z,170.70
2022-12-15T10:54:35.705Z,180.10
2022-12-15T10:57:28.187Z,150.37
2022-12-15T11:00:25.074Z,142.27
2022-12-15T11:02:52.308Z,145.93
2022-12-15T11:05:19.750Z,132.27
2022-12-15T11:08:14.868Z,142.97
2022-12-15T11:11:19.927Z,128.60
2022-12-15T11:14:13.089Z,145.03
2022-12-15T11:16:54.231Z,157.93
2022-12-15T11:20:02.047Z,140.90
2022-12-15T11:23:03.050Z,151.93
2022-12-15T11:25:58.111Z,144.20
2022-12-15T11:28:55.641Z,130.67
2022-12-15T11:31:32.778Z,156.60
2022-12-15T11:33:59.817Z,173.30
2022-12-15T11:37:34.234Z,162.80
2022-12-15T11:40:33.698Z,147.63
2022-12-15T11:43:47.056Z,145.90
2022-12-15T11:46:56.281Z,146.60
2022-12-15T11:49:33.854Z,153.87
2022-12-15T11:52:34.789Z,160.43
2022-12-15T11:55:16.470Z,122.97
2022-12-15T11:58:17.520Z,128.23
2022-12-15T12:01:01.164Z,142.60
2022-12-15T12:04:00.244Z,141.70
2022-12-15T12:06:42.001Z,134.33
2022-12-15T12:09:53.047Z,144.40
2022-12-15T12:12:34.099Z,142.83
2022-12-15T12:15:12.838Z,134.70
2022-12-15T12:17:52.237Z,123.30
2022-12-15T12:20:47.682Z,135.60
2022-12-15T12:23:24.258Z,131.77
2022-12-15T12:26:19.727Z,134.10
2022-12-15T12:29:19.768Z,131.13
2022-12-15T12:32:12.190Z,128.77
2022-12-15T12:35:29.804Z,172.07
2022-12-15T12:38:03.393Z,129.97
2022-12-15T12:40:55.074Z,131.93
2022-12-15T12:43:35.432Z,131.80
2022-12-15T12:46:55.693Z,135.93
2022-12-15T12:49:34.974Z,141.43
2022-12-15T12:52:04.411Z,154.20
2022-12-15T12:54:36.990Z,130.17
2022-12-15T12:57:12.495Z,135.53
2022-12-15T12:59:44.608Z,131.23
2022-12-15T13:02:22.324Z,143.53
2022-12-15T13:05:28.649Z,126.03
2022-12-15T13:08:06.971Z,129.13
2022-12-15T13:10:38.933Z,150.23
2022-12-15T13:13:31.516Z,131.37
2022-12-15T13:16:18.358Z,140.67
2022-12-15T13:19:14.915Z,118.87
2022-12-15T13:21:41.934Z,126.73
2022-12-15T13:24:50.325Z,121.10
2022-12-15T13:27:17.787Z,141.20
2022-12-15T13:30:16.036Z,158.83
2022-12-15T13:32:46.885Z,158.70
2022-12-15T13:35:14.489Z,181.20
2022-12-15T13:37:51.739Z,164.90
2022-12-15T13:40:36.598Z,128.37
2022-12-15T13:43:06.444Z,105.27
2022-12-15T13:45:56.919Z,119.90
2022-12-15T13:48:29.575Z,181.87
2022-12-15T13:51:23.860Z,176.00
2022-12-15T13:54:05.081Z,154.80
2022-12-15T13:57:01.939Z,151.53
2022-12-15T13:59:49.445Z,153.10
2022-12-15T14:02:31.083Z,150.13
2022-12-15T14:05:17.635Z,170.90
2022-12-15T14:07:54.598Z,164.23
2022-12-15T14:10:45.859Z,123.40
2022-12-15T14:13:31.398Z,142.47
2022-12-15T14:16:19.107Z,133.33
2022-12-15T14:19:17.479Z,141.83
2022-12-15T14:21:58.941Z,145.10
2022-12-15T14:24:40.916Z,146.37
2022-12-15T14:27:08.376Z,125.13
2022-12-15T14:29:35.400Z,131.93
2022-12-15T14:32:02.914Z,127.23
2022-12-15T14:34:37.156Z,118.63
2022-12-15T14:37:10.998Z,140.30
2022-12-15T14:39:46.225Z,109.20
2022-12-15T14:42:23.333Z,125.40
2022-12-15T14:44:54.942Z,125.40
2022-12-15T14:47:29.504Z,203.67
2022-12-15T14:50:01.253Z,149.73
2022-12-15T14:52:37.428Z,139.30
2022-12-15T14:55:37.052Z,127.70
2022-12-15T14:58:30.639Z,110.63
2022-12-15T15:00:59.278Z,128.83
2022-12-15T15:03:41.069Z,153.80
2022-12-15T15:06:11.128Z,158.47
2022-12-15T15:08:52.720Z,157.63
2022-12-15T15:11:35.847Z,134.37
2022-12-15T15:14:15.696Z,116.27
2022-12-15T15:16:43.769Z,113.10
2022-12-15T15:19:22.657Z,123.67
2022-12-15T15:21:49.678Z,119.13
2022-12-15T15:24:16.574Z,138.00
2022-12-15T15:26:43.675Z,133.07
2022-12-15T15:29:41.016Z,131.87
2022-12-15T15:32:20.267Z,139.23
2022-12-15T15:34:47.896Z,140.90
2022-12-15T15:37:23.470Z,127.97
2022-12-15T15:39:53.489Z,128.37
2022-12-15T15:42:21.165Z,139.93
2022-12-15T15:44:48.122Z,132.47
2022-12-15T15:47:21.678Z,122.30
2022-12-15T15:49:49.736Z,134.97
2022-12-15T15:52:16.798Z,132.13
2022-12-15T15:54:44.916Z,139.77
2022-12-15T15:57:16.673Z,121.57
2022-12-15T15:59:45.154Z,133.17
2022-12-15T16:02:13.625Z,132.90
2022-12-15T16:04:42.433Z,117.97
2022-12-15T16:07:29.684Z,126.80
2022-12-15T16:09:57.778Z,141.57
2022-12-15T16:12:42.343Z,133.53
2022-12-15T16:15:21.188Z,126.10
2022-12-15T16:17:48.208Z,125.43
2022-12-15T16:20:18.290Z,143.90
2022-12-15T16:22:50.320Z,140.80
2022-12-15T16:25:42.437Z,153.10
2022-12-15T16:28:18.639Z,147.87
2022-12-15T16:30:46.212Z,127.17
2022-12-15T16:33:13.795Z,132.37
2022-12-15T16:35:42.655Z,150.47
2022-12-15T16:38:29.121Z,193.87
2022-12-15T16:40:58.593Z,282.93
2022-12-15T16:43:32.918Z,293.00
2022-12-15T16:46:03.812Z,341.80
2022-12-15T16:48:31.385Z,216.60
2022-12-15T16:50:59.249Z,221.47
2022-12-15T16:53:32.721Z,214.10
2022-12-15T16:56:04.107Z,145.23
2022-12-15T16:58:32.499Z,163.57
2022-12-15T17:00:59.777Z,154.77
2022-12-15T17:03:27.380Z,154.53
2022-12-15T17:06:01.358Z,168.70
2022-12-15T17:08:48.080Z,152.53
2022-12-15T17:11:27.687Z,139.93
2022-12-15T17:13:58.173Z,142.13
2022-12-15T17:16:28.165Z,131.63
2022-12-15T17:18:55.197Z,140.53
2022-12-15T17:21:35.706Z,147.47
2022-12-15T17:24:12.109Z,122.23
2022-12-15T17:26:39.206Z,158.90
2022-12-15T17:29:16.943Z,225.37
2022-12-15T17:31:44.161Z,137.93
2022-12-15T17:34:30.375Z,134.03
2022-12-15T17:37:00.762Z,126.63
2022-12-15T17:39:28.614Z,134.43
2022-12-15T17:42:00.861Z,125.23
2022-12-15T17:44:35.640Z,130.90
2022-12-15T17:47:05.604Z,147.77
2022-12-15T17:49:36.105Z,140.90
2022-12-15T17:52:11.523Z,154.20
2022-12-15T17:54:38.627Z,176.37
2022-12-15T17:57:05.564Z,225.33
2022-12-15T17:59:32.514Z,216.67
2022-12-15T18:01:59.753Z,198.33
2022-12-15T18:04:26.876Z,190.57
2022-12-15T18:07:00.965Z,146.27
2022-12-15T18:09:30.321Z,168.50
2022-12-15T18:11:57.711Z,125.67
2022-12-15T18:14:24.909Z,164.40
2022-12-15T18:16:52.033Z,135.90
2022-12-15T18:19:19.141Z,151.90
2022-12-15T18:21:46.086Z,168.43
2022-12-15T18:24:15.485Z,161.00
2022-12-15T18:26:43.029Z,175.83
2022-12-15T18:29:17.767Z,139.30
2022-12-15T18:31:49.506Z,143.47
2022-12-15T18:34:21.095Z,136.77
2022-12-15T18:36:48.700Z,144.27
2022-12-15T18:39:23.859Z,175.60
2022-12-15T18:41:54.457Z,137.63
2022-12-15T18:44:27.426Z,168.23
2022-12-15T18:46:55.433Z,152.13
2022-12-15T18:49:23.962Z,147.27
2022-12-15T18:51:51.088Z,125.37
2022-12-15T18:54:21.608Z,124.73
2022-12-15T18:56:48.846Z,123.60
2022-12-15T18:59:17.922Z,120.57
2022-12-15T19:01:47.724Z,139.20
2022-12-15T19:04:16.101Z,115.73
2022-12-15T19:06:44.594Z,140.67
2022-12-15T19:09:17.952Z,138.60
2022-12-15T19:12:07.604Z,134.27
2022-12-15T19:14:40.725Z,122.87
2022-12-15T19:17:34.968Z,138.33
2022-12-15T19:20:23.262Z,162.83
2022-12-15T19:22:51.441Z,131.73
2022-12-15T19:25:26.713Z,156.13
2022-12-15T19:28:01.454Z,145.77
2022-12-15T19:30:36.998Z,135.43
2022-12-15T19:33:08.522Z,123.50
2022-12-15T19:35:37.368Z,117.00
2022-12-15T19:38:05.053Z,96.63
2022-12-15T19:40:35.701Z,80.23
2022-12-15T19:43:04.403Z,93.50
2022-12-15T19:45:32.711Z,84.43
2022-12-15T19:48:00.354Z,96.90
2022-12-15T19:50:37.017Z,94.30
2022-12-15T19:53:13.822Z,84.40
2022-12-15T19:55:41.019Z,73.00
2022-12-15T19:58:28.984Z,76.37
2022-12-15T20:01:08.801Z,86.87
2022-12-15T20:03:36.623Z,98.73
2022-12-15T20:06:12.080Z,100.20
2022-12-15T20:08:43.416Z,93.70
2022-12-15T20:11:22.358Z,86.83
2022-12-15T20:13:50.263Z,87.60
2022-12-15T20:16:19.172Z,85.63
2022-12-15T20:18:47.577Z,97.73
2022-12-15T20:21:21.914Z,95.17
2022-12-15T20:23:55.890Z,91.40
2022-12-15T20:26:25.014Z,100.20
2022-12-15T20:28:53.369Z,97.00
2022-12-15T20:31:22.543Z,110.70
2022-12-15T20:33:50.384Z,111.30
2022-12-15T20:36:29.943Z,98.97
2022-12-15T20:38:57.721Z,97.90
2022-12-15T20:41:29.356Z,103.03
2022-12-15T20:43:57.823Z,101.47
2022-12-15T20:46:34.939Z,94.87
2022-12-15T20:49:02.660Z,90.53
2022-12-15T20:51:32.922Z,107.50
2022-12-15T20:54:02.337Z,106.73
2022-12-15T20:56:29.432Z,97.73
2022-12-15T20:58:57.989Z,105.60
2022-12-15T21:01:32.953Z,106.13
2022-12-15T21:04:03.991Z,88.37
2022-12-15T21:06:31.327Z,151.03
2022-12-15T21:08:58.436Z,160.27
2022-12-15T21:11:32.644Z,151.97
2022-12-15T21:14:04.159Z,158.80
2022-12-15T21:16:32.996Z,162.43
2022-12-15T21:19:22.119Z,143.40
2022-12-15T21:21:55.128Z,138.03
2022-12-15T21:24:27.765Z,160.33
2022-12-15T21:26:55.268Z,148.67
2022-12-15T21:29:25.967Z,127.70
2022-12-15T21:31:53.158Z,157.93
2022-12-15T21:34:20.496Z,156.57
2022-12-15T21:36:52.163Z,152.03
2022-12-15T21:39:40.124Z,152.50
2022-12-15T21:42:14.403Z,145.53
2022-12-15T21:44:41.853Z,157.80
2022-12-15T21:47:47.332Z,147.97
2022-12-15T21:50:18.377Z,156.27
2022-12-15T21:52:46.847Z,155.67
2022-12-15T21:55:23.284Z,164.77
2022-12-15T21:57:50.372Z,144.87
2022-12-15T22:00:20.044Z,120.07
2022-12-15T22:02:49.581Z,102.77
2022-12-15T22:05:30.364Z,115.33
2022-12-15T22:08:20.803Z,146.63
2022-12-15T22:10:50.357Z,163.23
2022-12-15T22:13:22.413Z,113.40
2022-12-15T22:15:50.967Z,175.17
2022-12-15T22:18:22.674Z,174.07
2022-12-15T22:20:50.617Z,136.57
2022-12-15T22:23:20.742Z,171.57
2022-12-15T22:25:54.647Z,164.53
2022-12-15T22:28:25.573Z,147.97
2022-12-15T22:30:55.084Z,173.73
2022-12-15T22:33:25.619Z,167.17
2022-12-15T22:35:55.252Z,252.30
2022-12-15T22:38:24.128Z,183.97
2022-12-15T22:40:55.495Z,172.30
2022-12-15T22:43:37.039Z,141.60
2022-12-15T22:46:06.634Z,157.70
2022-12-15T22:48:37.110Z,129.60
2022-12-15T22:51:05.872Z,138.10
2022-12-15T22:53:35.579Z,132.60
2022-12-15T22:56:23.260Z,134.30
2022-12-15T22:58:59.736Z,113.93
2022-12-15T23:01:27.446Z,121.33
2022-12-15T23:03:54.480Z,143.57
2022-12-15T23:06:23.596Z,113.00
2022-12-15T23:08:55.931Z,118.33
2022-12-15T23:11:38.902Z,102.43
2022-12-15T23:14:15.593Z,120.10
2022-12-15T23:16:44.831Z,104.23
2022-12-15T23:19:23.998Z,118.90
2022-12-15T23:21:52.052Z,111.33
2022-12-15T23:24:19.107Z,118.97
2022-12-15T23:26:46.100Z,122.40
2022-12-15T23:29:13.069Z,117.53
2022-12-15T23:31:40.289Z,110.47
2022-12-15T23:34:07.438Z,122.50
2022-12-15T23:36:34.481Z,146.47
2022-12-15T23:39:01.534Z,123.80
2022-12-15T23:41:29.393Z,125.37
2022-12-15T23:43:56.351Z,111.90
2022-12-15T23:46:23.400Z,105.00
2022-12-15T23:48:50.362Z,117.77
2022-12-15T23:51:20.522Z,127.33
2022-12-15T23:53:48.535Z,139.03
2022-12-15T23:56:22.895Z,134.80
2022-12-15T23:58:57.868Z,112.33
